M I D A S
Marine Information and Data Acquisition System
Tripno 2038 of the Zeeleeuw from 2011-01-31 06:45:32 to 2011-01-31 17:56:45
Back to CruiseResearch ActivitiesStationsMapUnderway DataData graphs

EquipmentUnitsComment
TimeDGPSUTC
LatitudeDGPSDM.mWGS84
LongitudeDGPSDM.mWGS84
HeadingGyrodeg 
SOGDGPSknotsSpeed over ground
COGDGPSdegCourse over ground
DepthEcho soundermeters200 kHz
Missing or incorrect values are displayed as -999
Navigation data collected by the RV Zeeleeuw from 2011-01-31 06:48:14 to 2011-01-31 18:01:56
                                                                                    Next 1000 lines
Time Latitude Longitude Heading SOG COG Depth
2011-01-31 06:48:24 51°13.66 2°55.954 103.1 1 285 6.6
2011-01-31 06:48:29 51°13.66 2°55.951 103.1 1.3 288 6.6
2011-01-31 06:48:34 51°13.661 2°55.947 103.4 1.7 289 6.6
2011-01-31 06:48:39 51°13.662 2°55.943 103.9 2.2 288 4.8
2011-01-31 06:48:45 51°13.664 2°55.936 104.1 2.5 289 -999
2011-01-31 06:48:51 51°13.665 2°55.929 104 2.8 288 -999
2011-01-31 06:48:56 51°13.666 2°55.922 103.4 3.2 287 -999
2011-01-31 06:49:02 51°13.668 2°55.913 103 3.4 285 -999
2011-01-31 06:49:08 51°13.67 2°55.904 102.4 3.7 285 -999
2011-01-31 06:49:13 51°13.671 2°55.896 102 3.9 285 -999
2011-01-31 06:49:17 51°13.672 2°55.889 101.6 4.1 284 -999
2011-01-31 06:49:23 51°13.674 2°55.877 101.4 4.3 284 -999
2011-01-31 06:49:28 51°13.675 2°55.868 101.2 4.4 284 -999
2011-01-31 06:49:33 51°13.677 2°55.859 101 4.4 283 -999
2011-01-31 06:49:38 51°13.678 2°55.849 100.5 4.3 283 -999
2011-01-31 06:49:43 51°13.679 2°55.84 100 4.2 282 -999
2011-01-31 06:49:48 51°13.68 2°55.831 99.3 4.2 282 -999
2011-01-31 06:49:53 51°13.681 2°55.822 98.5 4.1 281 -999
2011-01-31 06:49:58 51°13.682 2°55.814 97.6 4 281 -999
2011-01-31 06:50:03 51°13.683 2°55.805 96.9 3.9 280 -999
2011-01-31 06:50:08 51°13.684 2°55.797 96 3.7 279 -999
2011-01-31 06:50:13 51°13.685 2°55.789 94.9 3.6 278 -999
2011-01-31 06:50:17 51°13.686 2°55.783 93.9 3.5 277 -999
2011-01-31 06:50:23 51°13.686 2°55.774 93.1 3.4 276 -999
2011-01-31 06:50:28 51°13.686 2°55.767 92.2 3.3 275 -999
2011-01-31 06:50:33 51°13.687 2°55.76 91.2 3.2 275 -999
2011-01-31 06:50:37 51°13.687 2°55.755 90.6 3 275 12.8
2011-01-31 06:50:43 51°13.688 2°55.749 90.1 2.6 275 12.5
2011-01-31 06:50:47 51°13.688 2°55.746 89.7 1.8 275 12.3
2011-01-31 06:50:53 51°13.688 2°55.744 88.1 0.8 287 12.4
2011-01-31 06:50:57 51°13.689 2°55.744 85.7 0.2 341 12.5
2011-01-31 06:51:02 51°13.69 2°55.745 80.7 0.6 40 12.7
2011-01-31 06:51:07 51°13.691 2°55.747 74.1 0.9 52 12.6
2011-01-31 06:51:12 51°13.692 2°55.749 67.5 1.3 50 12.5
2011-01-31 06:51:17 51°13.693 2°55.751 60.6 1.4 47 12.8
2011-01-31 06:51:21 51°13.694 2°55.753 54 1.4 42 12.6
2011-01-31 06:51:26 51°13.696 2°55.755 48.4 1.4 40 12.5
2011-01-31 06:51:32 51°13.697 2°55.757 42.9 1.2 34 -999
2011-01-31 06:51:37 51°13.698 2°55.757 40.2 0.7 34 12.6
2011-01-31 06:51:41 51°13.698 2°55.757 36.6 0.3 15 12.8
2011-01-31 06:51:46 51°13.698 2°55.757 33.9 0.1 251 12.6
2011-01-31 06:51:51 51°13.697 2°55.756 30.6 0.5 222 12.6
2011-01-31 06:51:56 51°13.696 2°55.755 27.7 0.9 213 12.6
2011-01-31 06:52:01 51°13.695 2°55.754 25.4 1.1 212 -999
2011-01-31 06:52:06 51°13.693 2°55.752 22.9 1.4 210 12.6
2011-01-31 06:52:12 51°13.691 2°55.751 21.1 1.4 208 4.9
2011-01-31 06:52:17 51°13.689 2°55.749 19.6 1.5 208 -999
2011-01-31 06:52:23 51°13.687 2°55.748 17.7 1.3 206 -999
2011-01-31 06:52:28 51°13.686 2°55.747 16.6 1 211 -999
2011-01-31 06:52:33 51°13.686 2°55.746 14.8 0.4 222 -999
2011-01-31 06:52:38 51°13.686 2°55.746 11.7 0.3 334 -999
2011-01-31 06:52:43 51°13.688 2°55.746 7.3 0.8 352 -999
2011-01-31 06:52:48 51°13.689 2°55.745 1.9 1.2 351 -999
2011-01-31 06:52:53 51°13.692 2°55.745 357.2 1.7 349 5.1
2011-01-31 06:52:57 51°13.694 2°55.743 350.8 2.1 345 4.9
2011-01-31 06:53:03 51°13.698 2°55.741 342.7 2.6 338 5
2011-01-31 06:53:07 51°13.701 2°55.739 338.2 3.1 336 4.9
2011-01-31 06:53:13 51°13.707 2°55.734 335.1 3.6 334 4.8
2011-01-31 06:53:17 51°13.711 2°55.731 333.2 3.9 334 12.6
2011-01-31 06:53:22 51°13.716 2°55.726 331.9 4.4 331 12.4
2011-01-31 06:53:27 51°13.722 2°55.721 331.6 4.9 333 12.2
2011-01-31 06:53:32 51°13.729 2°55.715 331.6 5.6 331 12.4
2011-01-31 06:53:37 51°13.737 2°55.709 331.1 5.9 332 12.1
2011-01-31 06:53:41 51°13.743 2°55.704 330.7 6.4 331 12
2011-01-31 06:53:46 51°13.751 2°55.696 330.5 6.7 331 11.9
2011-01-31 06:53:51 51°13.76 2°55.689 330.5 7.2 332 11.2
2011-01-31 06:53:56 51°13.769 2°55.681 330.8 7.6 331 10.9
2011-01-31 06:54:01 51°13.779 2°55.673 330.7 7.8 331 10.7
2011-01-31 06:54:05 51°13.787 2°55.666 330.7 8.1 332 10.6
2011-01-31 06:54:11 51°13.8 2°55.656 331.2 8.4 333 10.7
2011-01-31 06:54:15 51°13.808 2°55.649 331.5 8.6 333 10.7
2011-01-31 06:54:20 51°13.819 2°55.641 332.5 8.8 335 10.7
2011-01-31 06:54:25 51°13.83 2°55.632 332.9 9 334 10.9
2011-01-31 06:54:30 51°13.842 2°55.623 333 9.1 335 10.7
2011-01-31 06:54:35 51°13.854 2°55.615 333.6 9.3 335 10.4
2011-01-31 06:54:40 51°13.866 2°55.606 333.9 9.5 335 9.9
2011-01-31 06:54:45 51°13.878 2°55.597 333.7 9.6 335 10
2011-01-31 06:54:49 51°13.888 2°55.59 334.2 9.7 336 10.4
2011-01-31 06:54:54 51°13.9 2°55.581 334.7 9.8 336 10.5
2011-01-31 06:54:59 51°13.913 2°55.572 334.7 9.9 336 10.7
2011-01-31 06:55:04 51°13.925 2°55.563 335 9.9 336 10.7
2011-01-31 06:55:09 51°13.938 2°55.554 335.1 10 336 10.7
2011-01-31 06:55:14 51°13.951 2°55.545 334.7 10 335 10.7
2011-01-31 06:55:19 51°13.963 2°55.536 335 10 337 10.7
2011-01-31 06:55:24 51°13.976 2°55.527 335.2 10.1 336 10.9
2011-01-31 06:55:29 51°13.989 2°55.518 334.9 10.1 336 10.7
2011-01-31 06:55:34 51°14.002 2°55.509 334.8 10.1 336 11
2011-01-31 06:55:39 51°14.015 2°55.5 335.1 10.1 336 10.5
2011-01-31 06:55:44 51°14.028 2°55.491 335.1 10.1 337 10.3
2011-01-31 06:55:49 51°14.04 2°55.482 335.1 10.1 336 10.3
2011-01-31 06:55:54 51°14.053 2°55.473 335.1 10.1 336 10.3
2011-01-31 06:55:59 51°14.066 2°55.464 335.1 10.1 336 -999
2011-01-31 06:56:05 51°14.081 2°55.453 334.8 10.2 335 10.3
2011-01-31 06:56:10 51°14.094 2°55.444 334.7 10.2 336 -999
2011-01-31 06:56:16 51°14.11 2°55.433 334.8 10.2 335 -999
2011-01-31 06:56:21 51°14.123 2°55.423 334.6 10.3 335 10.3
2011-01-31 06:56:25 51°14.133 2°55.415 334 10.3 334 10.3
2011-01-31 06:56:31 51°14.148 2°55.403 333.2 10.3 334 10.3
2011-01-31 06:56:36 51°14.161 2°55.393 332.9 10.3 334 -999
2011-01-31 06:56:41 51°14.174 2°55.383 332.5 10.3 333 -999
2011-01-31 06:56:46 51°14.187 2°55.372 332.3 10.3 333 10.3
2011-01-31 06:56:52 51°14.202 2°55.359 332.2 10.4 332 -999
2011-01-31 06:56:57 51°14.215 2°55.348 331.3 10.4 331 -999
2011-01-31 06:57:03 51°14.23 2°55.335 330.3 10.5 331 -999
2011-01-31 06:57:08 51°14.242 2°55.322 329.2 10.5 329 -999
2011-01-31 06:57:13 51°14.255 2°55.31 327.4 10.5 329 -999
2011-01-31 06:57:17 51°14.265 2°55.301 326.8 10.5 328 -999
2011-01-31 06:57:23 51°14.28 2°55.286 326.9 10.5 329 -999
2011-01-31 06:57:28 51°14.292 2°55.274 327.3 10.6 328 10.3
2011-01-31 06:57:33 51°14.305 2°55.261 327.2 10.7 328 10.2
2011-01-31 06:57:37 51°14.314 2°55.25 325.9 10.7 326 -999
2011-01-31 06:57:42 51°14.327 2°55.237 324.4 10.7 326 -999
2011-01-31 06:57:48 51°14.342 2°55.221 323.6 10.8 325 -999
2011-01-31 06:57:53 51°14.354 2°55.207 323.3 10.9 325 10.2
2011-01-31 06:57:57 51°14.364 2°55.196 323.2 10.9 325 -999
2011-01-31 06:58:02 51°14.376 2°55.182 322.8 11 324 -999
2011-01-31 06:58:08 51°14.391 2°55.164 322.3 11.1 324 -999
2011-01-31 06:58:13 51°14.404 2°55.149 322.3 11.3 323 10.1
2011-01-31 06:58:17 51°14.414 2°55.137 322.1 11.4 323 10.3
2011-01-31 06:58:23 51°14.43 2°55.119 322 11.6 324 -999
2011-01-31 06:58:27 51°14.44 2°55.107 322.4 11.8 324 10.3
2011-01-31 06:58:33 51°14.456 2°55.088 322.6 12 324 10.8
2011-01-31 06:58:38 51°14.47 2°55.072 322.8 12.1 324 -999
2011-01-31 06:58:43 51°14.484 2°55.057 323.1 12.3 325 -999
2011-01-31 06:58:48 51°14.498 2°55.041 324.2 12.4 326 -999
2011-01-31 06:58:53 51°14.512 2°55.025 324.1 12.5 323 -999
2011-01-31 06:58:57 51°14.523 2°55.011 322.8 12.7 321 10.9
2011-01-31 06:59:02 51°14.536 2°54.992 321.8 12.8 319 10.9
2011-01-31 06:59:07 51°14.55 2°54.973 321.1 12.9 318 11
2011-01-31 06:59:12 51°14.563 2°54.954 320.3 13 317 11.1
2011-01-31 06:59:17 51°14.576 2°54.934 319.6 13.1 318 11.7
2011-01-31 06:59:21 51°14.587 2°54.918 319.6 13.2 317 11
2011-01-31 06:59:26 51°14.601 2°54.899 319.6 13.3 318 10.9
2011-01-31 06:59:31 51°14.615 2°54.879 320.8 13.3 318 11
2011-01-31 06:59:36 51°14.628 2°54.86 321 13.3 319 11.1
2011-01-31 06:59:41 51°14.643 2°54.841 321.6 13.3 320 11.5
2011-01-31 06:59:46 51°14.657 2°54.823 323.1 13.2 321 10.9
2011-01-31 06:59:51 51°14.671 2°54.804 323.7 13.3 320 11.3
2011-01-31 06:59:55 51°14.683 2°54.789 323.8 13.3 321 11
2011-01-31 07:00:01 51°14.7 2°54.767 323.8 13.3 321 11
2011-01-31 07:00:05 51°14.711 2°54.752 323.4 13.3 321 11
2011-01-31 07:00:10 51°14.725 2°54.733 323.4 13.3 321 11.2
2011-01-31 07:00:15 51°14.74 2°54.715 323.1 13.3 321 11.2
2011-01-31 07:00:21 51°14.757 2°54.692 323 13.3 321 -999
2011-01-31 07:00:27 51°14.774 2°54.671 323.1 13.3 322 -999
2011-01-31 07:00:32 51°14.789 2°54.653 323.7 13.2 322 -999
2011-01-31 07:00:37 51°14.803 2°54.635 323.9 13.3 322 -999
2011-01-31 07:00:43 51°14.821 2°54.614 324.1 13.2 323 -999
2011-01-31 07:00:48 51°14.835 2°54.596 324.5 13.2 323 -999
2011-01-31 07:00:53 51°14.85 2°54.579 324.5 13.1 323 11.2
2011-01-31 07:00:57 51°14.862 2°54.565 324.6 13.1 324 -999
2011-01-31 07:01:03 51°14.88 2°54.544 324.8 13.1 323 -999
2011-01-31 07:01:08 51°14.894 2°54.526 324.7 13.2 322 -999
2011-01-31 07:01:13 51°14.908 2°54.508 324.1 13.2 322 11.3
2011-01-31 07:01:17 51°14.92 2°54.494 323.8 13.2 322 -999
2011-01-31 07:01:22 51°14.934 2°54.476 323.8 13.2 322 11.5
2011-01-31 07:01:27 51°14.949 2°54.458 323.7 13.1 322 11.3
2011-01-31 07:01:32 51°14.963 2°54.44 323.7 13.1 322 11.3
2011-01-31 07:01:37 51°14.977 2°54.422 323.6 13.1 321 10.1
2011-01-31 07:01:42 51°14.991 2°54.405 323.6 13 322 9.9
2011-01-31 07:01:47 51°15.005 2°54.387 323.7 12.9 322 9.7
2011-01-31 07:01:52 51°15.02 2°54.37 324.3 12.8 323 9.6
2011-01-31 07:01:56 51°15.031 2°54.356 325.2 12.9 323 10
2011-01-31 07:02:01 51°15.046 2°54.34 326.2 13 324 10.3
2011-01-31 07:02:06 51°15.06 2°54.323 327.1 13 325 10.5
2011-01-31 07:02:11 51°15.075 2°54.306 327.4 13.1 325 10.5
2011-01-31 07:02:16 51°15.09 2°54.29 327.7 13.1 324 10.7
2011-01-31 07:02:21 51°15.105 2°54.272 327.8 13.1 324 10.4
2011-01-31 07:02:25 51°15.116 2°54.258 327.2 13.2 323 10.7
2011-01-31 07:02:30 51°15.131 2°54.24 326.6 13.2 322 10.6
2011-01-31 07:02:35 51°15.145 2°54.222 325.9 13.2 321 10.6
2011-01-31 07:02:40 51°15.159 2°54.204 324.9 13.3 321 10.7
2011-01-31 07:02:45 51°15.173 2°54.185 324.3 13.2 320 11.2
2011-01-31 07:02:49 51°15.185 2°54.17 323.8 13.2 320 10.9
2011-01-31 07:02:54 51°15.198 2°54.151 323.6 13.2 320 10.9
2011-01-31 07:02:59 51°15.213 2°54.132 323.6 13.2 320 10.8
2011-01-31 07:03:04 51°15.227 2°54.114 324.1 13.2 321 11
2011-01-31 07:03:09 51°15.241 2°54.095 324.8 13.2 321 11
2011-01-31 07:03:13 51°15.252 2°54.081 325.4 13.2 322 11
2011-01-31 07:03:19 51°15.27 2°54.059 326.2 13.2 322 11
2011-01-31 07:03:24 51°15.284 2°54.041 326.5 13.2 322 10.8
2011-01-31 07:03:29 51°15.298 2°54.023 325.8 13.2 321 11
2011-01-31 07:03:34 51°15.312 2°54.004 325.2 13.2 321 10.9
2011-01-31 07:03:39 51°15.327 2°53.985 324.5 13.3 320 11
2011-01-31 07:03:44 51°15.34 2°53.966 323.5 13.2 319 10.8
2011-01-31 07:03:49 51°15.354 2°53.947 322.5 13.2 318 10.7
2011-01-31 07:03:53 51°15.365 2°53.931 322 13.2 318 10.8
2011-01-31 07:03:59 51°15.381 2°53.907 321.4 13.3 318 10.7
2011-01-31 07:04:04 51°15.395 2°53.887 321 13.3 318 10.7
2011-01-31 07:04:09 51°15.408 2°53.868 320.9 13.3 318 10.5
2011-01-31 07:04:14 51°15.422 2°53.848 321.2 13.2 318 10.7
2011-01-31 07:04:19 51°15.436 2°53.829 322.3 13.2 320 10.8
2011-01-31 07:04:24 51°15.45 2°53.811 323.3 13.2 320 10.9
2011-01-31 07:04:29 51°15.464 2°53.792 323.8 13.2 320 10.7
2011-01-31 07:04:34 51°15.478 2°53.774 324.1 13.2 320 10.9
2011-01-31 07:04:39 51°15.492 2°53.754 323.9 13.2 320 10.9
2011-01-31 07:04:44 51°15.506 2°53.735 323.2 13.3 320 10.9
2011-01-31 07:04:49 51°15.52 2°53.715 322.6 13.3 318 10.8
2011-01-31 07:04:54 51°15.534 2°53.696 321.6 13.3 319 10.9
2011-01-31 07:04:59 51°15.548 2°53.677 321.6 13.3 320 11.1
2011-01-31 07:05:04 51°15.562 2°53.659 322.8 13.2 321 11.2
2011-01-31 07:05:09 51°15.577 2°53.641 323.4 13.2 321 11.1
2011-01-31 07:05:14 51°15.591 2°53.622 323.4 13.2 321 11.2
2011-01-31 07:05:19 51°15.605 2°53.604 323.5 13.2 322 11.1
2011-01-31 07:05:24 51°15.62 2°53.587 324.5 13.2 323 11.4
2011-01-31 07:05:29 51°15.635 2°53.569 325 13.2 322 11.2
2011-01-31 07:05:34 51°15.649 2°53.551 325.1 13.2 322 11.3
2011-01-31 07:05:39 51°15.664 2°53.534 325.4 13.2 323 11.3
2011-01-31 07:05:44 51°15.679 2°53.517 326.1 13.1 325 11.5
2011-01-31 07:05:49 51°15.694 2°53.502 328.2 13.1 328 11.5
2011-01-31 07:05:54 51°15.71 2°53.487 330.2 13.1 328 11.4
2011-01-31 07:05:59 51°15.725 2°53.474 332.4 13 332 11.3
2011-01-31 07:06:04 51°15.741 2°53.461 334.7 12.9 334 11.4
2011-01-31 07:06:09 51°15.758 2°53.45 337.1 12.8 336 11.6
2011-01-31 07:06:14 51°15.774 2°53.439 339.3 12.8 337 11.6
2011-01-31 07:06:19 51°15.791 2°53.429 341.1 12.7 340 11.8
2011-01-31 07:06:24 51°15.808 2°53.42 342.6 12.8 341 11.8
2011-01-31 07:06:29 51°15.825 2°53.411 343.4 12.8 341 12
2011-01-31 07:06:34 51°15.841 2°53.402 344.1 12.8 342 11.7
2011-01-31 07:06:39 51°15.858 2°53.393 344.4 12.8 342 11.8
2011-01-31 07:06:44 51°15.875 2°53.384 344.1 12.9 341 11.8
2011-01-31 07:06:49 51°15.892 2°53.374 343.1 12.9 340 11.7
2011-01-31 07:06:53 51°15.905 2°53.365 341.9 12.9 339 11.7
2011-01-31 07:06:59 51°15.925 2°53.352 340.2 12.9 336 11.9
2011-01-31 07:07:04 51°15.941 2°53.34 338.8 13 335 12
2011-01-31 07:07:09 51°15.957 2°53.327 337.5 13 334 11.9
2011-01-31 07:07:14 51°15.974 2°53.315 336.6 13 334 12
2011-01-31 07:07:19 51°15.99 2°53.302 335.9 13.1 333 11.9
2011-01-31 07:07:24 51°16.006 2°53.289 335.4 13 333 12
2011-01-31 07:07:29 51°16.022 2°53.275 335 13 333 12.1
2011-01-31 07:07:34 51°16.038 2°53.262 335 13.1 333 11.9
2011-01-31 07:07:39 51°16.054 2°53.249 335.2 13.1 333 12.1
2011-01-31 07:07:44 51°16.071 2°53.236 335.3 13.1 333 12
2011-01-31 07:07:49 51°16.087 2°53.223 335.5 13.1 333 11.9
2011-01-31 07:07:54 51°16.103 2°53.21 335.6 13.1 333 12.1
2011-01-31 07:07:59 51°16.12 2°53.197 335.9 13.1 334 12.1
2011-01-31 07:08:04 51°16.136 2°53.184 336.2 13.1 334 12
2011-01-31 07:08:09 51°16.152 2°53.172 336.6 13.1 335 12.2
2011-01-31 07:08:13 51°16.165 2°53.162 336.9 13.1 334 11.9
2011-01-31 07:08:19 51°16.185 2°53.147 337 13.1 334 11.9
2011-01-31 07:08:24 51°16.202 2°53.134 337 13.1 334 12.2
2011-01-31 07:08:29 51°16.218 2°53.121 336.8 13.1 334 12.4
2011-01-31 07:08:34 51°16.234 2°53.109 336.4 13.1 334 12.2
2011-01-31 07:08:39 51°16.251 2°53.096 336.1 13.1 335 12.2
2011-01-31 07:08:44 51°16.267 2°53.085 336.5 13 336 12.2
2011-01-31 07:08:49 51°16.283 2°53.072 337.1 13 335 12.3
2011-01-31 07:08:53 51°16.296 2°53.063 337.2 12.9 336 12.2
2011-01-31 07:08:59 51°16.316 2°53.048 337.3 12.9 335 12.2
2011-01-31 07:09:04 51°16.332 2°53.037 337.2 12.9 336 12.1
2011-01-31 07:09:09 51°16.348 2°53.024 336.9 12.9 335 12.2
2011-01-31 07:09:14 51°16.365 2°53.012 336.6 12.9 336 12.2
2011-01-31 07:09:19 51°16.381 2°53.001 336.7 12.8 335 12.2
2011-01-31 07:09:24 51°16.397 2°52.989 336.9 12.8 336 12.3
2011-01-31 07:09:29 51°16.413 2°52.978 337.2 12.8 336 12.2
2011-01-31 07:09:34 51°16.43 2°52.967 337.9 12.8 337 12.3
2011-01-31 07:09:39 51°16.446 2°52.956 338.6 12.8 338 12.3
2011-01-31 07:09:44 51°16.463 2°52.945 339 12.8 338 12.2
2011-01-31 07:09:49 51°16.479 2°52.934 339.2 12.8 338 12.3
2011-01-31 07:09:54 51°16.496 2°52.924 339.4 12.8 339 12.4
2011-01-31 07:09:59 51°16.512 2°52.914 339.7 12.8 339 12
2011-01-31 07:10:04 51°16.529 2°52.904 339.9 12.8 339 12.1
2011-01-31 07:10:09 51°16.546 2°52.894 340 12.8 339 12.1
2011-01-31 07:10:14 51°16.562 2°52.883 339.8 12.8 338 12
2011-01-31 07:10:19 51°16.578 2°52.873 339.7 12.8 339 11.9
2011-01-31 07:10:24 51°16.595 2°52.863 339.7 12.7 339 12.1
2011-01-31 07:10:29 51°16.612 2°52.853 339.8 12.8 339 12
2011-01-31 07:10:34 51°16.628 2°52.843 339.9 12.8 339 11.7
2011-01-31 07:10:39 51°16.645 2°52.833 339.9 12.7 339 11.6
2011-01-31 07:10:44 51°16.661 2°52.822 339.8 12.7 339 11.7
2011-01-31 07:10:49 51°16.678 2°52.812 339.8 12.7 338 11.3
2011-01-31 07:10:53 51°16.691 2°52.803 339.5 12.7 338 11.2
2011-01-31 07:10:59 51°16.71 2°52.791 339.3 12.7 338 11.1
2011-01-31 07:11:04 51°16.727 2°52.78 339.1 12.7 338 11.1
2011-01-31 07:11:09 51°16.743 2°52.77 339.4 12.6 339 10.6
2011-01-31 07:11:14 51°16.76 2°52.761 340 12.6 339 10.6
2011-01-31 07:11:19 51°16.776 2°52.752 340.6 12.5 340 10.3
2011-01-31 07:11:24 51°16.792 2°52.743 341.3 12.5 341 9.8
2011-01-31 07:11:29 51°16.809 2°52.734 342.1 12.5 342 10
2011-01-31 07:11:34 51°16.825 2°52.725 342.6 12.4 342 9.9
2011-01-31 07:11:39 51°16.842 2°52.717 343.1 12.4 342 9.9
2011-01-31 07:11:44 51°16.858 2°52.709 343.4 12.5 342 9.7
2011-01-31 07:11:49 51°16.875 2°52.7 343.8 12.5 342 9.7
2011-01-31 07:11:54 51°16.891 2°52.692 343.7 12.4 342 9.6
2011-01-31 07:11:59 51°16.908 2°52.683 343.4 12.4 342 9.8
2011-01-31 07:12:04 51°16.924 2°52.675 343.2 12.5 342 9.8
2011-01-31 07:12:09 51°16.941 2°52.666 343.1 12.5 342 10.1
2011-01-31 07:12:14 51°16.957 2°52.658 343.1 12.5 342 10.2
2011-01-31 07:12:19 51°16.974 2°52.649 343.4 12.6 343 10.4
2011-01-31 07:12:24 51°16.991 2°52.642 344.5 12.5 345 10.2
2011-01-31 07:12:29 51°17.008 2°52.635 346.2 12.5 346 10.4
2011-01-31 07:12:34 51°17.025 2°52.63 347.5 12.5 348 10.3
2011-01-31 07:12:39 51°17.042 2°52.624 348.9 12.5 348 10.2
2011-01-31 07:12:44 51°17.058 2°52.619 349.8 12.4 349 10.3
2011-01-31 07:12:49 51°17.075 2°52.614 350.2 12.4 349 9.8
2011-01-31 07:12:53 51°17.089 2°52.61 350.7 12.3 350 9.7
2011-01-31 07:12:59 51°17.109 2°52.605 351.2 12.3 350 10.1
2011-01-31 07:13:04 51°17.126 2°52.6 351.4 12.3 350 10.1
2011-01-31 07:13:09 51°17.142 2°52.596 351.5 12.3 350 9.7
2011-01-31 07:13:14 51°17.159 2°52.59 351.4 12.3 350 10.1
2011-01-31 07:13:19 51°17.176 2°52.586 351.1 12.3 350 10.1
2011-01-31 07:13:24 51°17.193 2°52.58 350.7 12.4 348 10
2011-01-31 07:13:29 51°17.21 2°52.575 350.1 12.4 348 10.1
2011-01-31 07:13:34 51°17.226 2°52.569 349.5 12.4 348 10.1
2011-01-31 07:13:39 51°17.243 2°52.563 349.1 12.4 348 10.1
2011-01-31 07:13:44 51°17.26 2°52.557 349 12.4 347 10.4
2011-01-31 07:13:49 51°17.277 2°52.551 348.9 12.5 347 10.3
2011-01-31 07:13:54 51°17.294 2°52.545 349 12.5 348 10.3
2011-01-31 07:13:59 51°17.311 2°52.539 349.3 12.4 348 10.7
2011-01-31 07:14:04 51°17.328 2°52.534 349.9 12.4 349 10.6
2011-01-31 07:14:09 51°17.344 2°52.529 350.3 12.3 349 10.7
2011-01-31 07:14:14 51°17.361 2°52.524 350.4 12.4 349 10.6
2011-01-31 07:14:19 51°17.378 2°52.519 350.5 12.4 349 10.6
2011-01-31 07:14:24 51°17.395 2°52.514 350.5 12.4 350 10.7
2011-01-31 07:14:29 51°17.412 2°52.509 351 12.4 350 10.7
2011-01-31 07:14:34 51°17.429 2°52.505 352 12.4 351 10.7
2011-01-31 07:14:39 51°17.446 2°52.502 352.8 12.4 352 10.7
2011-01-31 07:14:44 51°17.463 2°52.5 354.2 12.3 355 10.7
2011-01-31 07:14:49 51°17.48 2°52.498 356.5 12.3 356 10.9
2011-01-31 07:14:53 51°17.494 2°52.497 357.7 12.3 358 10.8
2011-01-31 07:14:59 51°17.515 2°52.496 358.8 12.4 359 10.7
2011-01-31 07:15:04 51°17.532 2°52.496 359.7 12.3 359 10.6
2011-01-31 07:15:09 51°17.549 2°52.495 359.9 12.3 359 10.6
2011-01-31 07:15:14 51°17.566 2°52.495 0.1 12.3 359 10.7
2011-01-31 07:15:19 51°17.583 2°52.494 0.3 12.3 359 10.7
2011-01-31 07:15:24 51°17.6 2°52.494 0.3 12.3 359 10.5
2011-01-31 07:15:29 51°17.617 2°52.494 0.3 12.3 -999 10.5
2011-01-31 07:15:34 51°17.634 2°52.494 0.5 12.3 -999 10.6
2011-01-31 07:15:39 51°17.651 2°52.494 0.6 12.3 -999 10.7
2011-01-31 07:15:44 51°17.668 2°52.493 0.5 12.3 359 10.8
2011-01-31 07:15:49 51°17.685 2°52.493 -999 12.3 359 10.9
2011-01-31 07:15:54 51°17.702 2°52.493 0.1 12.3 -999 10.4
2011-01-31 07:15:59 51°17.719 2°52.494 1.2 12.2 2 10.6
2011-01-31 07:16:04 51°17.736 2°52.495 2.7 12.2 3 10.8
2011-01-31 07:16:09 51°17.753 2°52.497 3.7 12.2 3 10.7
2011-01-31 07:16:14 51°17.77 2°52.499 4.6 12.2 4 10.7
2011-01-31 07:16:19 51°17.787 2°52.501 5.2 12.3 5 10.7
2011-01-31 07:16:24 51°17.804 2°52.504 5.6 12.3 5 10.6
2011-01-31 07:16:29 51°17.821 2°52.506 5.9 12.3 5 10.7
2011-01-31 07:16:33 51°17.834 2°52.508 6.1 12.3 5 10.9
2011-01-31 07:16:39 51°17.854 2°52.512 6.1 12.3 5 10.7
2011-01-31 07:16:44 51°17.871 2°52.514 6.2 12.3 5 10.9
2011-01-31 07:16:49 51°17.888 2°52.516 5.9 12.3 5 10.9
2011-01-31 07:16:54 51°17.905 2°52.518 5.4 12.3 4 10.8
2011-01-31 07:16:59 51°17.922 2°52.519 5.1 12.3 4 10.8
2011-01-31 07:17:04 51°17.939 2°52.521 4.9 12.3 3 10.9
2011-01-31 07:17:09 51°17.956 2°52.523 4.6 12.2 4 11.1
2011-01-31 07:17:14 51°17.973 2°52.524 4.5 12.3 3 11.1
2011-01-31 07:17:19 51°17.991 2°52.526 4.4 12.3 4 11.1
2011-01-31 07:17:24 51°18.008 2°52.528 4.5 12.4 4 11
2011-01-31 07:17:29 51°18.025 2°52.53 4.9 12.4 4 10.9
2011-01-31 07:17:34 51°18.042 2°52.532 5 12.3 4 11
2011-01-31 07:17:39 51°18.059 2°52.534 5.2 12.2 4 10.9
2011-01-31 07:17:44 51°18.075 2°52.536 5.2 12.3 5 11
2011-01-31 07:17:49 51°18.093 2°52.538 5.5 12.3 4 11.2
2011-01-31 07:17:54 51°18.109 2°52.541 5.5 12.3 5 11.2
2011-01-31 07:17:59 51°18.126 2°52.543 5.7 12.2 5 11.2
2011-01-31 07:18:04 51°18.143 2°52.545 6.1 12.3 5 11.4
2011-01-31 07:18:09 51°18.16 2°52.548 6.1 12.3 5 11.1
2011-01-31 07:18:14 51°18.177 2°52.549 5.9 12.4 4 11
2011-01-31 07:18:19 51°18.194 2°52.551 5.2 12.3 3 11.2
2011-01-31 07:18:24 51°18.211 2°52.552 4.9 12.3 3 11.1
2011-01-31 07:18:29 51°18.228 2°52.554 4.7 12.3 4 11.3
2011-01-31 07:18:33 51°18.242 2°52.556 4.8 12.3 3 11.4
2011-01-31 07:18:39 51°18.262 2°52.557 4.6 12.3 3 11.4
2011-01-31 07:18:44 51°18.279 2°52.559 4.6 12.3 3 11.5
2011-01-31 07:18:49 51°18.296 2°52.559 4.1 12.3 2 11.4
2011-01-31 07:18:54 51°18.313 2°52.56 3.9 12.3 2 11.3
2011-01-31 07:18:59 51°18.33 2°52.561 3.8 12.3 2 11.5
2011-01-31 07:19:04 51°18.347 2°52.563 3.7 12.3 3 11.5
2011-01-31 07:19:09 51°18.364 2°52.564 4.3 12.3 3 11.6
2011-01-31 07:19:14 51°18.381 2°52.566 4.8 12.3 4 11.6
2011-01-31 07:19:19 51°18.398 2°52.568 5.4 12.3 5 11.6
2011-01-31 07:19:24 51°18.415 2°52.57 5.8 12.3 4 11.8
2011-01-31 07:19:29 51°18.432 2°52.572 5.6 12.3 4 11.6
2011-01-31 07:19:34 51°18.45 2°52.574 5.6 12.4 4 11.8
2011-01-31 07:19:39 51°18.467 2°52.575 4.8 12.3 3 11.5
2011-01-31 07:19:44 51°18.484 2°52.576 4.4 12.3 2 11.6
2011-01-31 07:19:49 51°18.501 2°52.577 4 12.3 3 11.9
2011-01-31 07:19:53 51°18.514 2°52.578 3.8 12.4 2 11.8
2011-01-31 07:19:59 51°18.535 2°52.579 3.7 12.4 2 11.5
2011-01-31 07:20:04 51°18.552 2°52.58 3.8 12.3 2 11.8
2011-01-31 07:20:09 51°18.569 2°52.581 4.2 12.3 2 12
2011-01-31 07:20:14 51°18.586 2°52.583 4.2 12.3 2 12
2011-01-31 07:20:19 51°18.603 2°52.584 4.2 12.3 3 12
2011-01-31 07:20:24 51°18.62 2°52.585 4.4 12.3 3 12.1
2011-01-31 07:20:29 51°18.637 2°52.586 4.7 12.3 3 12.1
2011-01-31 07:20:34 51°18.654 2°52.587 4.8 12.3 3 12
2011-01-31 07:20:39 51°18.671 2°52.588 4.9 12.3 2 12.1
2011-01-31 07:20:44 51°18.688 2°52.589 4.4 12.3 1 12.1
2011-01-31 07:20:49 51°18.705 2°52.589 4 12.4 1 12.3
2011-01-31 07:20:54 51°18.723 2°52.589 3.4 12.3 -999 12.3
2011-01-31 07:20:59 51°18.74 2°52.59 3.1 12.4 -999 12.4
2011-01-31 07:21:04 51°18.757 2°52.59 3.1 12.5 -999 12.5
2011-01-31 07:21:09 51°18.774 2°52.589 3.1 12.4 -999 12.6
2011-01-31 07:21:14 51°18.792 2°52.59 3.1 12.4 -999 12.5
2011-01-31 07:21:19 51°18.809 2°52.59 3.6 12.4 1 12.3
2011-01-31 07:21:24 51°18.826 2°52.59 3.8 12.4 1 12.5
2011-01-31 07:21:29 51°18.843 2°52.591 4.3 12.4 1 12.7
2011-01-31 07:21:34 51°18.86 2°52.591 4.5 12.4 1 12.7
2011-01-31 07:21:39 51°18.878 2°52.592 4.9 12.4 2 12.8
2011-01-31 07:21:44 51°18.894 2°52.593 5 12.4 2 12.8
2011-01-31 07:21:49 51°18.912 2°52.593 5.1 12.4 2 12.9
2011-01-31 07:21:53 51°18.925 2°52.594 5.1 12.4 2 12.9
2011-01-31 07:21:59 51°18.946 2°52.595 5.1 12.5 1 12.8
2011-01-31 07:22:04 51°18.963 2°52.596 5.1 12.4 2 12.9
2011-01-31 07:22:09 51°18.981 2°52.596 5.1 12.5 1 13.1
2011-01-31 07:22:14 51°18.998 2°52.598 5.1 12.5 2 13.1
2011-01-31 07:22:19 51°19.015 2°52.598 4.8 12.5 1 13.3
2011-01-31 07:22:24 51°19.032 2°52.598 4.5 12.5 1 13.4
2011-01-31 07:22:29 51°19.05 2°52.599 4.2 12.5 1 13.4
2011-01-31 07:22:34 51°19.067 2°52.599 4.1 12.5 1 13.7
2011-01-31 07:22:39 51°19.084 2°52.599 4.3 12.5 1 13.8
2011-01-31 07:22:44 51°19.101 2°52.6 4.5 12.4 2 13.8
2011-01-31 07:22:49 51°19.119 2°52.6 4.8 12.5 1 13.8
2011-01-31 07:22:54 51°19.136 2°52.601 4.7 12.4 1 14
2011-01-31 07:22:59 51°19.154 2°52.601 4.2 12.5 -999 14.2
2011-01-31 07:23:04 51°19.171 2°52.601 4 12.5 -999 14.2
2011-01-31 07:23:09 51°19.188 2°52.601 3.8 12.5 -999 14
2011-01-31 07:23:14 51°19.206 2°52.601 3.8 12.5 -999 14.3
2011-01-31 07:23:19 51°19.223 2°52.602 3.7 12.5 1 14.5
2011-01-31 07:23:24 51°19.24 2°52.602 4.4 12.4 1 14.6
2011-01-31 07:23:29 51°19.257 2°52.602 4.4 12.5 1 14.6
2011-01-31 07:23:34 51°19.274 2°52.602 4.6 12.5 1 14.5
2011-01-31 07:23:39 51°19.292 2°52.603 4.6 12.4 1 14.7
2011-01-31 07:23:44 51°19.309 2°52.603 4.5 12.4 1 14.9
2011-01-31 07:23:49 51°19.326 2°52.603 4.3 12.4 -999 14.9
2011-01-31 07:23:53 51°19.34 2°52.603 4.2 12.4 -999 15
2011-01-31 07:23:59 51°19.361 2°52.603 4.1 12.5 -999 15.1
2011-01-31 07:24:04 51°19.378 2°52.603 3.7 12.5 -999 15.2
2011-01-31 07:24:09 51°19.395 2°52.603 3.7 12.5 359 15.1
2011-01-31 07:24:14 51°19.413 2°52.602 3.6 12.4 359 15.3
2011-01-31 07:24:19 51°19.43 2°52.603 3.6 12.5 -999 15.3
2011-01-31 07:24:24 51°19.447 2°52.603 3.8 12.5 -999 15.2
2011-01-31 07:24:29 51°19.464 2°52.603 4 12.4 1 15.4
2011-01-31 07:24:34 51°19.482 2°52.603 4.5 12.4 1 15.7
2011-01-31 07:24:39 51°19.499 2°52.603 4.9 12.4 -999 15.8
2011-01-31 07:24:44 51°19.516 2°52.603 4.9 12.4 -999 15.7
2011-01-31 07:24:49 51°19.533 2°52.604 4.7 12.4 -999 16
2011-01-31 07:24:54 51°19.551 2°52.604 4.4 12.4 -999 15.9
2011-01-31 07:24:59 51°19.568 2°52.604 4.4 12.4 -999 15.8
2011-01-31 07:25:04 51°19.585 2°52.604 4.7 12.4 1 16
2011-01-31 07:25:09 51°19.602 2°52.604 4.7 12.5 -999 15.9
2011-01-31 07:25:14 51°19.62 2°52.604 4.5 12.5 -999 15.9
2011-01-31 07:25:19 51°19.637 2°52.604 4.1 12.5 359 16.1
2011-01-31 07:25:24 51°19.654 2°52.604 3.8 12.5 359 16.2
2011-01-31 07:25:29 51°19.672 2°52.603 3.6 12.5 358 16.1
2011-01-31 07:25:34 51°19.689 2°52.601 3.2 12.5 358 16.3
2011-01-31 07:25:39 51°19.706 2°52.598 1.1 12.6 354 16.4
2011-01-31 07:25:44 51°19.724 2°52.595 359 12.6 353 16.5
2011-01-31 07:25:49 51°19.741 2°52.59 357.2 12.7 351 16.3
2011-01-31 07:25:54 51°19.758 2°52.586 355.7 12.7 350 16.1
2011-01-31 07:25:59 51°19.776 2°52.58 354.5 12.7 349 16.4
2011-01-31 07:26:04 51°19.793 2°52.575 353.9 12.7 349 16.5
2011-01-31 07:26:09 51°19.811 2°52.569 353.6 12.7 348 16.8
2011-01-31 07:26:13 51°19.825 2°52.565 353.6 12.7 349 16.5
2011-01-31 07:26:19 51°19.845 2°52.558 353.7 12.8 349 16.5
2011-01-31 07:26:24 51°19.863 2°52.554 354.3 12.8 351 16.6
2011-01-31 07:26:29 51°19.88 2°52.549 355.2 12.8 351 16.7
2011-01-31 07:26:34 51°19.898 2°52.545 355.9 12.8 352 16.7
2011-01-31 07:26:39 51°19.915 2°52.542 356.8 12.7 352 16.6
2011-01-31 07:26:44 51°19.933 2°52.538 357.2 12.7 353 16.7
2011-01-31 07:26:49 51°19.95 2°52.535 357.5 12.7 353 16.9
2011-01-31 07:26:54 51°19.968 2°52.532 357.9 12.7 353 17.1
2011-01-31 07:26:59 51°19.985 2°52.528 358 12.7 353 16.8
2011-01-31 07:27:04 51°20.003 2°52.525 358.1 12.8 353 16.9
2011-01-31 07:27:09 51°20.021 2°52.522 358.2 12.7 354 16.9
2011-01-31 07:27:14 51°20.038 2°52.519 358.4 12.8 354 16.3
2011-01-31 07:27:19 51°20.056 2°52.516 358.6 12.8 354 16.8
2011-01-31 07:27:24 51°20.073 2°52.513 358.7 12.8 354 16.7
2011-01-31 07:27:29 51°20.091 2°52.511 359.1 12.8 355 16.9
2011-01-31 07:27:34 51°20.108 2°52.508 359.3 12.8 355 16.9
2011-01-31 07:27:39 51°20.126 2°52.505 359.3 12.7 354 16.8
2011-01-31 07:27:44 51°20.144 2°52.502 359.2 12.7 354 16.9
2011-01-31 07:27:49 51°20.162 2°52.499 358.8 12.8 354 16.7
2011-01-31 07:27:54 51°20.179 2°52.496 358.4 12.8 353 16.7
2011-01-31 07:27:59 51°20.197 2°52.492 358 12.8 353 16.7
2011-01-31 07:28:04 51°20.214 2°52.489 357.9 12.8 353 16.8
2011-01-31 07:28:09 51°20.232 2°52.486 357.9 12.8 354 16.9
2011-01-31 07:28:13 51°20.246 2°52.484 358.9 12.8 355 16.8
2011-01-31 07:28:19 51°20.267 2°52.481 359.5 12.8 355 16.9
2011-01-31 07:28:24 51°20.285 2°52.479 -999 12.7 356 16.7
2011-01-31 07:28:29 51°20.302 2°52.477 0.4 12.8 356 16.5
2011-01-31 07:28:34 51°20.32 2°52.475 0.8 12.8 357 16.5
2011-01-31 07:28:39 51°20.338 2°52.474 1.3 12.7 357 16.6
2011-01-31 07:28:44 51°20.355 2°52.472 1.5 12.8 357 16.7
2011-01-31 07:28:49 51°20.373 2°52.471 1.8 12.7 358 16.6
2011-01-31 07:28:54 51°20.39 2°52.47 2 12.7 358 16.3
2011-01-31 07:28:59 51°20.408 2°52.469 2.3 12.7 358 16.4
2011-01-31 07:29:04 51°20.426 2°52.468 2.3 12.8 358 16.2
2011-01-31 07:29:09 51°20.443 2°52.467 2.2 12.7 357 16.5
2011-01-31 07:29:14 51°20.461 2°52.465 2.1 12.7 357 16.4
2011-01-31 07:29:19 51°20.479 2°52.464 1.7 12.7 357 16.5
2011-01-31 07:29:24 51°20.496 2°52.462 1.5 12.8 357 16.5
2011-01-31 07:29:29 51°20.514 2°52.461 1.4 12.8 357 16.2
2011-01-31 07:29:33 51°20.528 2°52.46 1.3 12.7 358 16.1
2011-01-31 07:29:39 51°20.548 2°52.458 2.2 12.6 358 16.2
2011-01-31 07:29:44 51°20.566 2°52.458 3 12.7 359 15.9
2011-01-31 07:29:49 51°20.584 2°52.458 3.6 12.7 359 15.6
2011-01-31 07:29:54 51°20.601 2°52.458 4.2 12.6 -999 15.3
2011-01-31 07:29:59 51°20.619 2°52.458 4.4 12.7 -999 14.6
2011-01-31 07:30:04 51°20.637 2°52.458 4.7 12.7 1 14.9
2011-01-31 07:30:09 51°20.654 2°52.459 4.9 12.6 -999 15.2
2011-01-31 07:30:14 51°20.672 2°52.459 5 12.7 1 14.6
2011-01-31 07:30:19 51°20.69 2°52.459 4.9 12.7 1 15
2011-01-31 07:30:24 51°20.707 2°52.459 5 12.6 -999 15
2011-01-31 07:30:29 51°20.725 2°52.46 5 12.6 1 14.8
2011-01-31 07:30:34 51°20.742 2°52.46 5.1 12.7 -999 14.8
2011-01-31 07:30:39 51°20.76 2°52.461 5.1 12.7 1 14.9
2011-01-31 07:30:44 51°20.778 2°52.461 5.1 12.7 -999 14.9
2011-01-31 07:30:49 51°20.795 2°52.461 5.1 12.7 1 14.9
2011-01-31 07:30:54 51°20.813 2°52.462 5.1 12.7 1 15.1
2011-01-31 07:30:59 51°20.831 2°52.462 4.9 12.7 1 15.1
2011-01-31 07:31:04 51°20.848 2°52.462 4.6 12.7 -999 15.2
2011-01-31 07:31:09 51°20.866 2°52.462 4.4 12.7 -999 15.2
2011-01-31 07:31:14 51°20.883 2°52.462 4.4 12.7 -999 15.3
2011-01-31 07:31:19 51°20.901 2°52.462 4.4 12.7 1 15.5
2011-01-31 07:31:24 51°20.919 2°52.463 4.5 12.8 -999 15.7
2011-01-31 07:31:29 51°20.936 2°52.463 4.7 12.7 1 15.6
2011-01-31 07:31:33 51°20.95 2°52.463 4.8 12.7 1 15.8
2011-01-31 07:31:39 51°20.971 2°52.463 4.6 12.7 -999 15.9
2011-01-31 07:31:44 51°20.989 2°52.463 4.4 12.8 -999 16
2011-01-31 07:31:49 51°21.007 2°52.463 4.1 12.8 -999 15.9
2011-01-31 07:31:54 51°21.024 2°52.463 3.8 12.7 359 16.1
2011-01-31 07:31:59 51°21.042 2°52.462 3.7 12.7 359 16.4
2011-01-31 07:32:04 51°21.06 2°52.463 3.9 12.7 -999 16.4
2011-01-31 07:32:09 51°21.077 2°52.463 4.2 12.8 -999 16.1
2011-01-31 07:32:14 51°21.095 2°52.463 4.7 12.7 1 16.2
2011-01-31 07:32:19 51°21.112 2°52.464 4.7 12.6 1 16.5
2011-01-31 07:32:24 51°21.13 2°52.464 4.9 12.6 -999 16.7
2011-01-31 07:32:29 51°21.147 2°52.464 4.5 12.6 -999 16.9
2011-01-31 07:32:34 51°21.165 2°52.464 4.1 12.7 -999 16.8
2011-01-31 07:32:39 51°21.183 2°52.464 4 12.6 -999 16.9
2011-01-31 07:32:44 51°21.2 2°52.464 4.2 12.6 -999 17.3
2011-01-31 07:32:49 51°21.218 2°52.464 4.4 12.7 -999 17.3
2011-01-31 07:32:53 51°21.232 2°52.464 4.5 12.7 -999 17.5
2011-01-31 07:32:59 51°21.253 2°52.464 4.2 12.7 1 17.7
2011-01-31 07:33:04 51°21.271 2°52.464 4 12.7 -999 17.5
2011-01-31 07:33:09 51°21.288 2°52.465 4.6 12.7 2 17.7
2011-01-31 07:33:13 51°21.303 2°52.466 5.9 12.7 3 17.9
2011-01-31 07:33:19 51°21.324 2°52.468 6.7 12.7 3 17.7
2011-01-31 07:33:24 51°21.341 2°52.47 7.5 12.7 4 18.2
2011-01-31 07:33:29 51°21.359 2°52.472 8.1 12.7 5 18.1
2011-01-31 07:33:34 51°21.376 2°52.475 8.9 12.6 6 18
2011-01-31 07:33:39 51°21.393 2°52.478 9.5 12.7 6 18.5
2011-01-31 07:33:44 51°21.411 2°52.48 9.9 12.7 6 18.3
2011-01-31 07:33:49 51°21.428 2°52.483 9.8 12.6 5 18.4
2011-01-31 07:33:54 51°21.446 2°52.486 9.8 12.7 5 18.6
2011-01-31 07:33:59 51°21.463 2°52.488 9.5 12.6 6 18.8
2011-01-31 07:34:04 51°21.48 2°52.491 9.5 12.6 5 18.9
2011-01-31 07:34:09 51°21.497 2°52.493 9.5 12.6 5 19.2
2011-01-31 07:34:14 51°21.515 2°52.496 9.5 12.6 5 19.5
2011-01-31 07:34:19 51°21.532 2°52.499 9.5 12.6 6 19.9
2011-01-31 07:34:24 51°21.55 2°52.501 9.7 12.6 5 19.7
2011-01-31 07:34:29 51°21.567 2°52.505 10.3 12.5 7 20.1
2011-01-31 07:34:34 51°21.585 2°52.507 10.4 12.5 6 20.3
2011-01-31 07:34:39 51°21.602 2°52.511 10.3 12.6 6 20.4
2011-01-31 07:34:44 51°21.619 2°52.513 10.3 12.6 6 20.8
2011-01-31 07:34:49 51°21.637 2°52.516 9.9 12.6 6 21.1
2011-01-31 07:34:53 51°21.651 2°52.518 9.8 12.7 5 21
2011-01-31 07:34:59 51°21.672 2°52.521 9.7 12.6 5 21.3
2011-01-31 07:35:04 51°21.689 2°52.523 9.7 12.6 5 21.4
2011-01-31 07:35:09 51°21.707 2°52.526 9.6 12.7 5 21.6
2011-01-31 07:35:13 51°21.72 2°52.528 9.5 12.7 5 21.7
2011-01-31 07:35:19 51°21.741 2°52.53 9.3 12.6 5 21.8
2011-01-31 07:35:24 51°21.759 2°52.533 9.3 12.7 5 22.1
2011-01-31 07:35:29 51°21.776 2°52.536 9.6 12.6 6 22.4
2011-01-31 07:35:33 51°21.79 2°52.538 9.7 12.7 6 22.6
2011-01-31 07:35:39 51°21.811 2°52.542 9.7 12.7 6 22.9
2011-01-31 07:35:44 51°21.829 2°52.545 10.2 12.7 7 23
2011-01-31 07:35:49 51°21.846 2°52.548 10.2 12.7 6 23.3
2011-01-31 07:35:53 51°21.86 2°52.55 10.2 12.6 6 23.4
2011-01-31 07:35:59 51°21.881 2°52.554 10.1 12.6 6 23.9
2011-01-31 07:36:04 51°21.899 2°52.556 9.6 12.7 5 23.8
2011-01-31 07:36:09 51°21.916 2°52.558 9.2 12.8 4 23.8
2011-01-31 07:36:14 51°21.934 2°52.56 8.8 12.8 4 24
2011-01-31 07:36:19 51°21.951 2°52.562 8.6 12.7 4 24.1
2011-01-31 07:36:24 51°21.969 2°52.564 8.6 12.7 4 24.2
2011-01-31 07:36:29 51°21.987 2°52.566 8.6 12.7 4 24.7
2011-01-31 07:36:34 51°22.005 2°52.568 8.7 12.8 5 24.6
2011-01-31 07:36:39 51°22.022 2°52.571 8.9 12.8 4 24.6
2011-01-31 07:36:44 51°22.04 2°52.573 9.2 12.7 5 24.6
2011-01-31 07:36:49 51°22.058 2°52.575 9.3 12.8 5 24.8
2011-01-31 07:36:54 51°22.075 2°52.578 9.4 12.8 5 25
2011-01-31 07:36:59 51°22.093 2°52.581 9.5 12.8 6 25.1
2011-01-31 07:37:04 51°22.111 2°52.585 9.7 12.7 8 25
2011-01-31 07:37:09 51°22.128 2°52.59 11.2 12.6 10 24.9
2011-01-31 07:37:14 51°22.145 2°52.595 11.7 12.7 9 25.2
2011-01-31 07:37:19 51°22.163 2°52.599 11.5 12.7 9 24.9
2011-01-31 07:37:24 51°22.18 2°52.603 10.9 12.6 9 25.1
2011-01-31 07:37:29 51°22.197 2°52.606 9.9 12.7 7 24.8
2011-01-31 07:37:34 51°22.215 2°52.61 9.6 12.6 7 24.8
2011-01-31 07:37:39 51°22.232 2°52.613 8.8 12.6 6 24.7
2011-01-31 07:37:44 51°22.249 2°52.615 8.4 12.6 5 24.5
2011-01-31 07:37:49 51°22.267 2°52.618 7.9 12.5 6 25
2011-01-31 07:37:53 51°22.281 2°52.62 8 12.6 6 25
2011-01-31 07:37:59 51°22.301 2°52.624 8.6 12.5 6 24.9
2011-01-31 07:38:04 51°22.319 2°52.626 8.8 12.5 6 24.6
2011-01-31 07:38:09 51°22.336 2°52.629 8.8 12.5 5 24.7
2011-01-31 07:38:14 51°22.353 2°52.632 8.4 12.5 6 24.7
2011-01-31 07:38:19 51°22.371 2°52.634 8.4 12.5 5 24.3
2011-01-31 07:38:24 51°22.388 2°52.638 8.3 12.5 6 24.1
2011-01-31 07:38:29 51°22.405 2°52.64 8.7 12.4 6 24.1
2011-01-31 07:38:34 51°22.422 2°52.643 8.8 12.4 7 23.8
2011-01-31 07:38:39 51°22.439 2°52.646 9.2 12.4 6 23.7
2011-01-31 07:38:44 51°22.456 2°52.65 9.2 12.4 7 23.8
2011-01-31 07:38:49 51°22.473 2°52.652 9.2 12.4 6 23.8
2011-01-31 07:38:54 51°22.49 2°52.655 9.2 12.4 7 23.9
2011-01-31 07:38:59 51°22.507 2°52.658 9 12.4 5 23.5
2011-01-31 07:39:04 51°22.524 2°52.661 8.6 12.3 6 23.7
2011-01-31 07:39:09 51°22.542 2°52.663 8.8 12.4 5 24
2011-01-31 07:39:14 51°22.559 2°52.666 8.3 12.3 6 23.9
2011-01-31 07:39:19 51°22.576 2°52.667 8.7 12.4 4 23.5
2011-01-31 07:39:24 51°22.593 2°52.67 8 12.3 5 23.5
2011-01-31 07:39:29 51°22.61 2°52.672 8.7 12.4 4 23.2
2011-01-31 07:39:33 51°22.624 2°52.674 8.1 12.4 5 23.6
2011-01-31 07:39:39 51°22.644 2°52.676 8.3 12.4 4 23.4
2011-01-31 07:39:44 51°22.661 2°52.679 8.1 12.3 4 23.3
2011-01-31 07:39:49 51°22.679 2°52.681 8.2 12.4 5 23.7
2011-01-31 07:39:53 51°22.692 2°52.683 8.6 12.3 5 23.9
2011-01-31 07:39:59 51°22.713 2°52.687 9.2 12.3 6 24
2011-01-31 07:40:04 51°22.73 2°52.69 9.5 12.3 7 24
2011-01-31 07:40:09 51°22.747 2°52.693 10.3 12.4 6 23.6
2011-01-31 07:40:14 51°22.764 2°52.695 10.1 12.3 6 23.9
2011-01-31 07:40:19 51°22.781 2°52.698 10 12.3 6 24
2011-01-31 07:40:24 51°22.797 2°52.701 10.1 12.3 5 24
2011-01-31 07:40:29 51°22.815 2°52.704 9.6 12.3 6 24.3
2011-01-31 07:40:34 51°22.832 2°52.707 9.3 12.3 5 24
2011-01-31 07:40:39 51°22.849 2°52.709 9.3 12.4 5 24.1
2011-01-31 07:40:44 51°22.866 2°52.711 9 12.4 4 23.8
2011-01-31 07:40:49 51°22.883 2°52.714 8.7 12.3 5 23.3
2011-01-31 07:40:53 51°22.897 2°52.715 8.6 12.4 4 23.3
2011-01-31 07:40:59 51°22.917 2°52.718 8.3 12.3 5 23.4
2011-01-31 07:41:04 51°22.934 2°52.72 9.1 12.3 5 23.1
2011-01-31 07:41:09 51°22.951 2°52.722 9.5 12.3 5 22.4
2011-01-31 07:41:14 51°22.968 2°52.724 9.4 12.2 4 20.8
2011-01-31 07:41:19 51°22.985 2°52.725 8.4 12.2 3 24
2011-01-31 07:41:24 51°23.002 2°52.727 8.2 12.2 4 24.1
2011-01-31 07:41:29 51°23.019 2°52.73 8.2 12.2 4 24.1
2011-01-31 07:41:34 51°23.036 2°52.733 9.5 12.3 7 24.1
2011-01-31 07:41:39 51°23.053 2°52.735 9.5 12.3 4 23.9
2011-01-31 07:41:44 51°23.07 2°52.738 9.4 12.4 6 23.8
2011-01-31 07:41:49 51°23.087 2°52.739 9.4 12.4 4 23
2011-01-31 07:41:54 51°23.104 2°52.741 8.6 12.3 4 23.2
2011-01-31 07:41:59 51°23.121 2°52.742 8.1 12.3 3 22.9
2011-01-31 07:42:04 51°23.138 2°52.744 8.1 12.4 4 22.4
2011-01-31 07:42:09 51°23.155 2°52.746 8.1 12.3 3 22.1
2011-01-31 07:42:14 51°23.172 2°52.747 8.2 12.4 3 21.3
2011-01-31 07:42:19 51°23.19 2°52.749 8.1 12.4 4 20.1
2011-01-31 07:42:24 51°23.207 2°52.751 8.1 12.4 3 18
2011-01-31 07:42:29 51°23.224 2°52.752 8 12.3 3 20.8
2011-01-31 07:42:34 51°23.241 2°52.754 8 12.3 3 22
2011-01-31 07:42:39 51°23.258 2°52.756 8.3 12.3 4 21.8
2011-01-31 07:42:44 51°23.275 2°52.758 9.4 12.4 5 21.8
2011-01-31 07:42:49 51°23.292 2°52.761 9.9 12.3 5 21.7
2011-01-31 07:42:53 51°23.306 2°52.762 9.7 12.3 4 21.7
2011-01-31 07:42:59 51°23.326 2°52.765 9.3 12.3 4 21
2011-01-31 07:43:04 51°23.343 2°52.767 9.2 12.3 4 20.2
2011-01-31 07:43:09 51°23.36 2°52.769 9.1 12.3 4 21.1
2011-01-31 07:43:14 51°23.377 2°52.771 9.4 12.3 5 21.8
2011-01-31 07:43:19 51°23.394 2°52.773 9.8 12.2 5 21.6
2011-01-31 07:43:24 51°23.411 2°52.776 10 12.2 5 21.7
2011-01-31 07:43:29 51°23.428 2°52.778 10.4 12.2 5 21.7
2011-01-31 07:43:33 51°23.441 2°52.78 10.6 12.2 5 21.8
2011-01-31 07:43:39 51°23.461 2°52.783 10.3 12.2 5 22
2011-01-31 07:43:44 51°23.478 2°52.785 10.2 12.2 5 21.8
2011-01-31 07:43:49 51°23.495 2°52.788 10.2 12.2 5 21.8
2011-01-31 07:43:53 51°23.509 2°52.789 9.9 12.4 4 21.6
2011-01-31 07:43:59 51°23.529 2°52.791 9.5 12.3 4 21.4
2011-01-31 07:44:04 51°23.546 2°52.794 9.4 12.3 4 21.5
2011-01-31 07:44:09 51°23.563 2°52.796 9.7 12.3 5 21.8
2011-01-31 07:44:13 51°23.577 2°52.798 9.7 12.4 4 21.5
2011-01-31 07:44:19 51°23.597 2°52.8 9.5 12.3 4 21.6
2011-01-31 07:44:24 51°23.614 2°52.803 9.3 12.3 5 20.7
2011-01-31 07:44:29 51°23.631 2°52.805 9.6 12.3 5 20.6
2011-01-31 07:44:34 51°23.648 2°52.808 9.8 12.3 5 21.3
2011-01-31 07:44:39 51°23.665 2°52.81 10 12.4 5 21.6
2011-01-31 07:44:44 51°23.682 2°52.813 9.7 12.3 6 20.3
2011-01-31 07:44:49 51°23.7 2°52.815 10.2 12.4 5 20.4
2011-01-31 07:44:54 51°23.717 2°52.818 10.1 12.4 5 20.5
2011-01-31 07:44:59 51°23.734 2°52.821 9.5 12.4 6 21
2011-01-31 07:45:04 51°23.751 2°52.823 9.6 12.4 6 20.6
2011-01-31 07:45:09 51°23.768 2°52.828 10.3 12.3 8 19.9
2011-01-31 07:45:14 51°23.785 2°52.832 11.9 12.4 10 18.8
2011-01-31 07:45:19 51°23.801 2°52.838 13.2 12.3 11 19.2
2011-01-31 07:45:24 51°23.818 2°52.843 13.8 12.2 11 19.4
2011-01-31 07:45:29 51°23.834 2°52.849 14.9 12.2 13 19.6
2011-01-31 07:45:34 51°23.851 2°52.854 15.2 12.2 12 19.2
2011-01-31 07:45:39 51°23.868 2°52.859 14.7 12.2 12 17.9
2011-01-31 07:45:44 51°23.884 2°52.865 15.1 12.2 12 18.9
2011-01-31 07:45:49 51°23.901 2°52.871 15.2 12.2 11 19.1
2011-01-31 07:45:54 51°23.917 2°52.876 14.9 12.2 12 18.5
2011-01-31 07:45:59 51°23.934 2°52.882 14.9 12.2 11 17.7
2011-01-31 07:46:04 51°23.951 2°52.887 14.7 12.2 12 18.2
2011-01-31 07:46:09 51°23.967 2°52.893 14.8 12.2 12 17.2
2011-01-31 07:46:14 51°23.984 2°52.898 15 12.2 12 15.9
2011-01-31 07:46:19 51°24 2°52.904 15 12.3 12 16.2
2011-01-31 07:46:24 51°24.017 2°52.909 15.2 12.1 12 16.5
2011-01-31 07:46:29 51°24.033 2°52.915 15 12.1 12 17.6
2011-01-31 07:46:34 51°24.049 2°52.921 15.9 12 13 16.5
2011-01-31 07:46:39 51°24.066 2°52.927 15.9 12.1 13 17.1
2011-01-31 07:46:44 51°24.082 2°52.933 15.4 12.1 12 17.4
2011-01-31 07:46:49 51°24.099 2°52.939 15.1 12.1 12 18
2011-01-31 07:46:54 51°24.115 2°52.945 15.1 12.2 12 18
2011-01-31 07:46:59 51°24.132 2°52.95 14.6 12.2 12 18.5
2011-01-31 07:47:04 51°24.148 2°52.956 14.7 12.2 12 18.8
2011-01-31 07:47:09 51°24.165 2°52.962 14.7 12.2 12 18.9
2011-01-31 07:47:14 51°24.182 2°52.968 14.8 12.2 13 18.9
2011-01-31 07:47:19 51°24.198 2°52.973 14.8 12.2 12 19.1
2011-01-31 07:47:24 51°24.215 2°52.979 14.8 12.2 12 19.7
2011-01-31 07:47:29 51°24.231 2°52.985 14.7 12.2 12 19.3
2011-01-31 07:47:33 51°24.245 2°52.989 14.6 12.3 11 19
2011-01-31 07:47:39 51°24.264 2°52.995 14.4 12.2 11 18.9
2011-01-31 07:47:44 51°24.281 2°53 14.1 12.2 11 19.2
2011-01-31 07:47:49 51°24.298 2°53.005 13.6 12.3 11 19.4
2011-01-31 07:47:54 51°24.315 2°53.01 13.8 12.2 10 19.3
2011-01-31 07:47:59 51°24.331 2°53.015 13.8 12.2 11 18.8
2011-01-31 07:48:04 51°24.348 2°53.02 13.9 12.3 10 17.1
2011-01-31 07:48:09 51°24.365 2°53.025 13.8 12.3 10 16.8
2011-01-31 07:48:14 51°24.381 2°53.029 12.3 12.2 8 17.4
2011-01-31 07:48:19 51°24.398 2°53.032 11.6 12.3 8 16.5
2011-01-31 07:48:24 51°24.415 2°53.035 10.6 12.3 6 16.6
2011-01-31 07:48:29 51°24.432 2°53.038 9.9 12.3 7 17.2
2011-01-31 07:48:33 51°24.446 2°53.04 9.4 12.3 5 17.6
2011-01-31 07:48:39 51°24.466 2°53.043 9.2 12.4 5 18.1
2011-01-31 07:48:44 51°24.483 2°53.045 8.6 12.4 4 18.1
2011-01-31 07:48:49 51°24.5 2°53.048 8.5 12.3 5 18.4
2011-01-31 07:48:54 51°24.517 2°53.05 8.8 12.3 5 19.1
2011-01-31 07:48:59 51°24.534 2°53.053 8.8 12.4 6 19.5
2011-01-31 07:49:04 51°24.551 2°53.056 9.5 12.4 6 19.5
2011-01-31 07:49:09 51°24.568 2°53.059 9.7 12.3 6 18.7
2011-01-31 07:49:14 51°24.585 2°53.061 9.4 12.3 5 19.1
2011-01-31 07:49:19 51°24.602 2°53.064 9 12.3 5 19.2
2011-01-31 07:49:24 51°24.619 2°53.066 8.6 12.3 5 19.1
2011-01-31 07:49:29 51°24.636 2°53.068 8.5 12.4 5 18.6
2011-01-31 07:49:34 51°24.653 2°53.069 8.2 12.3 4 18.1
2011-01-31 07:49:39 51°24.67 2°53.071 8.2 12.3 4 18.9
2011-01-31 07:49:44 51°24.687 2°53.073 8.2 12.3 4 19.2
2011-01-31 07:49:49 51°24.704 2°53.075 8.1 12.3 4 20
2011-01-31 07:49:54 51°24.721 2°53.076 8.2 12.3 4 19.8
2011-01-31 07:49:59 51°24.738 2°53.078 8.2 12.2 4 19.8
2011-01-31 07:50:04 51°24.755 2°53.08 8.3 12.3 4 19.9
2011-01-31 07:50:09 51°24.772 2°53.082 8.6 12.3 4 20.1
2011-01-31 07:50:14 51°24.789 2°53.084 8.6 12.3 4 20.2
2011-01-31 07:50:19 51°24.806 2°53.086 8.9 12.2 4 19.5
2011-01-31 07:50:24 51°24.823 2°53.088 9.3 12.2 5 19.2
2011-01-31 07:50:29 51°24.84 2°53.09 9.5 12.2 5 18.5
2011-01-31 07:50:34 51°24.857 2°53.092 9.6 12.2 4 19.3
2011-01-31 07:50:39 51°24.874 2°53.095 9.5 12.1 5 19.9
2011-01-31 07:50:44 51°24.891 2°53.097 9.6 12.2 4 20.4
2011-01-31 07:50:49 51°24.908 2°53.099 9.5 12.2 5 20.4
2011-01-31 07:50:54 51°24.924 2°53.101 9.8 12.2 5 20.2
2011-01-31 07:50:59 51°24.941 2°53.103 9.7 12.2 4 20.3
2011-01-31 07:51:04 51°24.958 2°53.105 9.3 12.2 4 21.1
2011-01-31 07:51:09 51°24.975 2°53.107 9.2 12.2 4 21.7
2011-01-31 07:51:14 51°24.992 2°53.109 9 12.2 4 21.4
2011-01-31 07:51:19 51°25.009 2°53.111 8.8 12.2 4 21.5
2011-01-31 07:51:24 51°25.026 2°53.112 8.4 12.2 3 20
2011-01-31 07:51:29 51°25.043 2°53.114 8.4 12.2 4 21
2011-01-31 07:51:34 51°25.06 2°53.115 8.6 12.2 3 21.9
2011-01-31 07:51:39 51°25.077 2°53.117 8.4 12.2 3 22.3
2011-01-31 07:51:44 51°25.094 2°53.118 8.5 12.2 4 23.1
2011-01-31 07:51:49 51°25.11 2°53.12 8.8 12.2 4 23.2
2011-01-31 07:51:54 51°25.127 2°53.122 9.1 12.2 4 23.3
2011-01-31 07:51:59 51°25.144 2°53.124 9.2 12.2 4 23.5
2011-01-31 07:52:04 51°25.161 2°53.126 9.3 12.2 4 23.5
2011-01-31 07:52:09 51°25.178 2°53.128 9.2 12.2 4 23.6
2011-01-31 07:52:14 51°25.195 2°53.13 9.1 12.3 3 23.7
2011-01-31 07:52:19 51°25.212 2°53.132 9.1 12.2 3 23.8
2011-01-31 07:52:24 51°25.229 2°53.133 8.7 12.3 3 24
2011-01-31 07:52:29 51°25.245 2°53.135 8.3 12.2 3 24.2
2011-01-31 07:52:34 51°25.263 2°53.136 8.4 12.2 4 24.1
2011-01-31 07:52:39 51°25.279 2°53.138 8.5 12.2 4 24.2
2011-01-31 07:52:44 51°25.296 2°53.14 9.1 12.3 4 24.4
2011-01-31 07:52:49 51°25.313 2°53.142 9.6 12.2 5 24.3
2011-01-31 07:52:54 51°25.33 2°53.144 9.7 12.1 4 24.5
2011-01-31 07:52:59 51°25.347 2°53.146 9.6 12.1 4 24.7
2011-01-31 07:53:04 51°25.364 2°53.148 9.5 12.2 3 24.6
2011-01-31 07:53:09 51°25.38 2°53.15 9.2 12.2 4 24.3
2011-01-31 07:53:14 51°25.397 2°53.151 9 12.2 3 24.1
2011-01-31 07:53:19 51°25.414 2°53.153 8.8 12.2 4 24.3
2011-01-31 07:53:24 51°25.431 2°53.155 9.1 12.2 4 24.2
2011-01-31 07:53:29 51°25.448 2°53.157 9.3 12.2 4 24.5
2011-01-31 07:53:33 51°25.462 2°53.159 9.8 12.2 5 24.7
2011-01-31 07:53:39 51°25.482 2°53.161 9.9 12.2 4 24.7
2011-01-31 07:53:44 51°25.499 2°53.163 9.9 12.2 5 24.9
2011-01-31 07:53:49 51°25.516 2°53.165 9.8 12.2 4 25.3
2011-01-31 07:53:54 51°25.533 2°53.167 9.8 12.2 4 24.8
2011-01-31 07:53:59 51°25.55 2°53.169 9.4 12.3 4 24.5
2011-01-31 07:54:04 51°25.566 2°53.171 9.2 12.2 4 24.7
2011-01-31 07:54:09 51°25.584 2°53.172 9.2 12.3 3 25.2
2011-01-31 07:54:14 51°25.601 2°53.175 9.5 12.3 5 25.2
2011-01-31 07:54:19 51°25.617 2°53.177 10 12.2 4 25.5
2011-01-31 07:54:24 51°25.634 2°53.179 9.6 12.2 5 25.5
2011-01-31 07:54:29 51°25.651 2°53.181 9.6 12.3 4 25.6
2011-01-31 07:54:34 51°25.668 2°53.183 9.6 12.2 4 25.7
2011-01-31 07:54:39 51°25.685 2°53.185 9.5 12.2 4 26.2
2011-01-31 07:54:44 51°25.702 2°53.187 9 12.3 4 25.9
2011-01-31 07:54:49 51°25.719 2°53.189 9.3 12.3 5 26.5
2011-01-31 07:54:54 51°25.736 2°53.191 9.8 12.3 5 26.7
2011-01-31 07:54:59 51°25.753 2°53.194 10 12.3 5 26.6
2011-01-31 07:55:04 51°25.77 2°53.197 10.5 12.2 6 26.8
2011-01-31 07:55:09 51°25.787 2°53.2 11 12.2 6 26.6
2011-01-31 07:55:14 51°25.803 2°53.203 11.4 12.2 7 26.9
2011-01-31 07:55:19 51°25.82 2°53.206 11.3 12.3 6 27.5
2011-01-31 07:55:24 51°25.837 2°53.209 11.3 12.2 6 27.6
2011-01-31 07:55:29 51°25.854 2°53.212 11.2 12.3 5 28.1
2011-01-31 07:55:33 51°25.868 2°53.214 10.6 12.3 5 28.4
2011-01-31 07:55:39 51°25.888 2°53.217 10.4 12.3 6 28.4
2011-01-31 07:55:44 51°25.905 2°53.219 10.5 12.3 5 28.9
2011-01-31 07:55:49 51°25.922 2°53.222 10.3 12.3 6 29.3
2011-01-31 07:55:54 51°25.939 2°53.224 10.7 12.3 5 29.9
2011-01-31 07:55:59 51°25.956 2°53.228 11 12.3 6 30
2011-01-31 07:56:04 51°25.973 2°53.231 11.6 12.4 6 30.4
2011-01-31 07:56:09 51°25.99 2°53.233 11.3 12.4 6 30.8
2011-01-31 07:56:14 51°26.007 2°53.236 11.5 12.3 6 30.9
2011-01-31 07:56:19 51°26.024 2°53.239 11.3 12.4 6 31.2
2011-01-31 07:56:24 51°26.042 2°53.242 11.1 12.5 6 31.1
2011-01-31 07:56:29 51°26.059 2°53.244 10.8 12.5 5 31.1
2011-01-31 07:56:34 51°26.076 2°53.247 10.8 12.4 6 31.4
2011-01-31 07:56:39 51°26.093 2°53.25 11.2 12.4 6 31.8
2011-01-31 07:56:44 51°26.11 2°53.253 11 12.4 6 31.8
2011-01-31 07:56:49 51°26.127 2°53.256 11.4 12.5 6 31.5
2011-01-31 07:56:53 51°26.141 2°53.258 11.3 12.5 6 30.9
2011-01-31 07:56:59 51°26.162 2°53.261 11.1 12.5 5 31.2
2011-01-31 07:57:04 51°26.179 2°53.264 10.6 12.5 5 31.6
2011-01-31 07:57:09 51°26.196 2°53.266 10.3 12.5 5 31.9
2011-01-31 07:57:14 51°26.214 2°53.269 10.4 12.5 5 32.3
2011-01-31 07:57:19 51°26.231 2°53.271 10.9 12.6 6 32.4
2011-01-31 07:57:24 51°26.248 2°53.274 11 12.5 5 32.4
2011-01-31 07:57:29 51°26.266 2°53.277 11 12.5 5 32.5
2011-01-31 07:57:34 51°26.283 2°53.28 11 12.5 5 32.5
2011-01-31 07:57:39 51°26.3 2°53.282 10.7 12.6 5 32.3
2011-01-31 07:57:44 51°26.318 2°53.285 10.6 12.5 5 32.3
2011-01-31 07:57:49 51°26.335 2°53.287 10.7 12.6 5 31.7
2011-01-31 07:57:54 51°26.352 2°53.29 10.8 12.6 6 31.7
2011-01-31 07:57:59 51°26.369 2°53.293 11.2 12.5 6 31.8
2011-01-31 07:58:04 51°26.387 2°53.296 11.4 12.5 6 32
2011-01-31 07:58:09 51°26.404 2°53.298 11.6 12.5 6 32.2
2011-01-31 07:58:14 51°26.421 2°53.301 11.4 12.5 5 32.2
2011-01-31 07:58:19 51°26.438 2°53.304 11.3 12.5 6 32.4
2011-01-31 07:58:24 51°26.456 2°53.306 11.3 12.6 5 32.5
2011-01-31 07:58:29 51°26.473 2°53.309 11.1 12.6 5 32.1
2011-01-31 07:58:34 51°26.49 2°53.311 11.1 12.5 5 32.1
2011-01-31 07:58:39 51°26.508 2°53.314 11 12.5 6 32.4
2011-01-31 07:58:44 51°26.525 2°53.316 11 12.5 5 32.8
2011-01-31 07:58:49 51°26.542 2°53.319 11 12.6 6 32.6
2011-01-31 07:58:54 51°26.559 2°53.322 11.3 12.5 6 32.8
2011-01-31 07:58:59 51°26.577 2°53.325 11.4 12.6 6 32.8
2011-01-31 07:59:04 51°26.594 2°53.328 11.7 12.5 5 32.4
2011-01-31 07:59:09 51°26.611 2°53.331 11.6 12.5 6 32.4
2011-01-31 07:59:14 51°26.628 2°53.333 11.5 12.5 6 32.3
2011-01-31 07:59:19 51°26.646 2°53.336 11.2 12.5 5 32.5
2011-01-31 07:59:24 51°26.663 2°53.339 11.2 12.6 6 32.6
2011-01-31 07:59:29 51°26.68 2°53.341 11.4 12.5 5 32.5
2011-01-31 07:59:34 51°26.698 2°53.344 11.3 12.5 6 32.2
2011-01-31 07:59:39 51°26.715 2°53.347 11.3 12.6 6 31.7
2011-01-31 07:59:44 51°26.732 2°53.349 11.4 12.6 5 31.5
2011-01-31 07:59:49 51°26.75 2°53.352 11.2 12.5 6 31
2011-01-31 07:59:54 51°26.767 2°53.355 11.6 12.5 6 30.6
2011-01-31 07:59:59 51°26.784 2°53.358 11.7 12.5 6 29.7
2011-01-31 08:00:04 51°26.801 2°53.362 11.8 12.5 8 29.3
2011-01-31 08:00:09 51°26.818 2°53.366 12.4 12.5 7 29.3
2011-01-31 08:00:13 51°26.832 2°53.369 12.5 12.5 8 29.4
2011-01-31 08:00:19 51°26.853 2°53.373 12.6 12.4 7 29.5
2011-01-31 08:00:24 51°26.87 2°53.376 12.4 12.4 7 29.8
2011-01-31 08:00:29 51°26.887 2°53.379 12 12.5 7 29.8
2011-01-31 08:00:34 51°26.904 2°53.382 12 12.5 6 29.7
2011-01-31 08:00:39 51°26.922 2°53.385 11.4 12.4 6 29.8
2011-01-31 08:00:44 51°26.939 2°53.388 11.3 12.5 6 29.8
2011-01-31 08:00:49 51°26.956 2°53.39 11.3 12.5 6 29.4
2011-01-31 08:00:54 51°26.973 2°53.393 11.1 12.6 5 29.7
2011-01-31 08:00:59 51°26.991 2°53.396 11.1 12.5 6 29.5
2011-01-31 08:01:04 51°27.008 2°53.398 11.4 12.4 5 29
2011-01-31 08:01:09 51°27.025 2°53.402 11.2 12.4 7 30
2011-01-31 08:01:14 51°27.042 2°53.404 11.4 12.5 5 29.9
2011-01-31 08:01:19 51°27.059 2°53.407 11.6 12.5 6 29.7
2011-01-31 08:01:24 51°27.077 2°53.41 11.6 12.5 6 29.7
2011-01-31 08:01:29 51°27.094 2°53.413 11.5 12.6 6 29.7
2011-01-31 08:01:33 51°27.108 2°53.415 11.6 12.5 6 28.8
2011-01-31 08:01:39 51°27.128 2°53.419 12 12.5 6 29
2011-01-31 08:01:44 51°27.145 2°53.422 11.7 12.5 5 29.3
2011-01-31 08:01:49 51°27.163 2°53.424 11.2 12.5 5 29.6
2011-01-31 08:01:54 51°27.18 2°53.427 11 12.5 5 28.8
2011-01-31 08:01:59 51°27.197 2°53.429 11 12.5 5 28.4
2011-01-31 08:02:04 51°27.214 2°53.431 10.8 12.5 5 27.8
2011-01-31 08:02:09 51°27.232 2°53.433 10.7 12.5 5 27.9
2011-01-31 08:02:14 51°27.249 2°53.436 10.7 12.4 5 28.1
2011-01-31 08:02:19 51°27.266 2°53.438 10.8 12.5 5 29
2011-01-31 08:02:24 51°27.283 2°53.441 10.8 12.5 5 28.5
2011-01-31 08:02:29 51°27.301 2°53.443 11.1 12.5 6 27.5
2011-01-31 08:02:34 51°27.318 2°53.446 11.4 12.5 6 29
2011-01-31 08:02:39 51°27.335 2°53.449 11.7 12.5 6 29.5
2011-01-31 08:02:44 51°27.352 2°53.453 12.2 12.5 7 29.1
2011-01-31 08:02:49 51°27.37 2°53.456 12.3 12.6 7 28.8
2011-01-31 08:02:54 51°27.387 2°53.459 12.5 12.5 7 27.3
2011-01-31 08:02:59 51°27.404 2°53.462 12.5 12.5 6 25.4
2011-01-31 08:03:04 51°27.421 2°53.465 12.2 12.5 7 25.9
2011-01-31 08:03:09 51°27.438 2°53.469 12 12.4 7 25.8
2011-01-31 08:03:14 51°27.456 2°53.473 11.9 12.4 9 27
2011-01-31 08:03:19 51°27.472 2°53.478 13.1 12.4 11 27.2
2011-01-31 08:03:24 51°27.489 2°53.483 13.5 12.4 10 26.6
2011-01-31 08:03:29 51°27.506 2°53.488 13.7 12.4 10 25.8
2011-01-31 08:03:33 51°27.52 2°53.491 13.4 12.4 10 23.3
2011-01-31 08:03:39 51°27.54 2°53.496 12.6 12.4 9 24.1
2011-01-31 08:03:44 51°27.557 2°53.501 12.2 12.4 9 22.6
2011-01-31 08:03:49 51°27.574 2°53.505 11.7 12.4 8 23.3
2011-01-31 08:03:54 51°27.591 2°53.508 11.5 12.4 8 23.8
2011-01-31 08:03:59 51°27.608 2°53.511 10.8 12.4 7 24.2
2011-01-31 08:04:04 51°27.625 2°53.515 10.5 12.4 8 24.1
2011-01-31 08:04:09 51°27.642 2°53.519 10.6 12.4 7 22.3
2011-01-31 08:04:14 51°27.659 2°53.522 10.7 12.5 7 23.3
2011-01-31 08:04:19 51°27.677 2°53.526 10.6 12.4 7 23.3
2011-01-31 08:04:24 51°27.693 2°53.529 10.8 12.3 7 21.6
2011-01-31 08:04:29 51°27.711 2°53.532 10.8 12.3 7 20.9
2011-01-31 08:04:34 51°27.728 2°53.536 11 12.4 7 22.4
2011-01-31 08:04:39 51°27.744 2°53.54 10.9 12.4 8 23.2
2011-01-31 08:04:44 51°27.762 2°53.543 11.1 12.4 8 23.5
2011-01-31 08:04:49 51°27.778 2°53.547 11.7 12.4 9 22.5
2011-01-31 08:04:53 51°27.792 2°53.55 11.8 12.4 8 19.9
2011-01-31 08:04:59 51°27.812 2°53.555 12 12.4 9 21.7
2011-01-31 08:05:04 51°27.829 2°53.559 11.9 12.3 8 22.4
2011-01-31 08:05:09 51°27.846 2°53.563 11.9 12.3 9 22.8
2011-01-31 08:05:14 51°27.863 2°53.566 11.7 12.3 7 22.9
2011-01-31 08:05:19 51°27.88 2°53.57 11.6 12.4 7 20.9
2011-01-31 08:05:24 51°27.897 2°53.573 11 12.4 7 22.5
2011-01-31 08:05:29 51°27.914 2°53.576 10.7 12.3 6 23.1
2011-01-31 08:05:34 51°27.931 2°53.579 10.4 12.3 6 23.3
2011-01-31 08:05:39 51°27.948 2°53.582 10.2 12.3 7 23.8
2011-01-31 08:05:44 51°27.965 2°53.585 10.8 12.3 6 22.9
2011-01-31 08:05:49 51°27.982 2°53.589 11 12.3 8 22
2011-01-31 08:05:54 51°27.999 2°53.592 11.4 12.3 7 22.3
2011-01-31 08:05:59 51°28.016 2°53.596 11.3 12.3 7 20.9
2011-01-31 08:06:04 51°28.033 2°53.598 11.4 12.3 6 20.5
2011-01-31 08:06:09 51°28.05 2°53.602 10.8 12.3 6 21.9
2011-01-31 08:06:14 51°28.067 2°53.605 11 12.3 6 22.2
2011-01-31 08:06:19 51°28.083 2°53.608 11 12.3 7 21.1
2011-01-31 08:06:24 51°28.1 2°53.611 11.2 12.3 7 21.5
2011-01-31 08:06:29 51°28.117 2°53.614 11.1 12.3 6 22
2011-01-31 08:06:33 51°28.131 2°53.617 11.1 12.2 7 21.4
2011-01-31 08:06:39 51°28.151 2°53.621 11.2 12.3 7 21.4
2011-01-31 08:06:44 51°28.168 2°53.625 11.4 12.2 8 22.1
2011-01-31 08:06:49 51°28.185 2°53.628 11.6 12.2 7 22.5
2011-01-31 08:06:53 51°28.198 2°53.631 11.7 12.3 7 22.9
2011-01-31 08:06:59 51°28.218 2°53.634 11.5 12.2 7 23.2
2011-01-31 08:07:04 51°28.235 2°53.637 11.3 12.3 6 22.2
2011-01-31 08:07:09 51°28.252 2°53.64 10.8 12.3 6 23.2
2011-01-31 08:07:14 51°28.269 2°53.643 10.7 12.4 6 23.3
2011-01-31 08:07:19 51°28.286 2°53.646 11.1 12.3 6 23.2
2011-01-31 08:07:24 51°28.303 2°53.649 10.9 12.4 6 23.5
2011-01-31 08:07:29 51°28.32 2°53.652 11 12.4 7 24
2011-01-31 08:07:34 51°28.338 2°53.655 10.9 12.4 6 24.8
2011-01-31 08:07:39 51°28.354 2°53.659 11 12.3 7 24.2
2011-01-31 08:07:44 51°28.372 2°53.662 11.2 12.4 7 23.9
2011-01-31 08:07:49 51°28.389 2°53.666 11.3 12.4 7 24.3
2011-01-31 08:07:54 51°28.406 2°53.669 11.8 12.4 8 22.6
2011-01-31 08:07:59 51°28.422 2°53.673 11.8 12.3 7 23.5
2011-01-31 08:08:04 51°28.44 2°53.676 12 12.3 8 23.7
2011-01-31 08:08:09 51°28.457 2°53.68 11.9 12.4 7 24.1
2011-01-31 08:08:14 51°28.474 2°53.683 11.9 12.4 8 24.2
2011-01-31 08:08:19 51°28.491 2°53.687 11.8 12.4 7 24.4
2011-01-31 08:08:24 51°28.508 2°53.69 11.8 12.4 7 24.9
2011-01-31 08:08:29 51°28.525 2°53.694 11.8 12.5 8 25.1
2011-01-31 08:08:34 51°28.542 2°53.697 11.7 12.4 6 25.5
2011-01-31 08:08:39 51°28.559 2°53.7 11.7 12.4 7 25.6
2011-01-31 08:08:44 51°28.576 2°53.703 11.6 12.4 6 25.7
2011-01-31 08:08:49 51°28.593 2°53.706 11.3 12.4 6 26.1
2011-01-31 08:08:53 51°28.607 2°53.708 11 12.4 6 26
2011-01-31 08:08:59 51°28.627 2°53.712 11 12.5 7 25.8
2011-01-31 08:09:04 51°28.645 2°53.715 11 12.5 6 26
2011-01-31 08:09:09 51°28.662 2°53.718 10.9 12.5 7 26.1
2011-01-31 08:09:14 51°28.679 2°53.721 11.3 12.5 7 26.2
2011-01-31 08:09:19 51°28.696 2°53.725 11.5 12.5 7 26.4
2011-01-31 08:09:24 51°28.713 2°53.728 11.9 12.5 7 26.3
2011-01-31 08:09:29 51°28.73 2°53.732 11.9 12.4 7 26.4
2011-01-31 08:09:34 51°28.747 2°53.735 11.7 12.4 7 26.8
2011-01-31 08:09:39 51°28.764 2°53.738 11.7 12.4 7 26.8
2011-01-31 08:09:44 51°28.782 2°53.74 11.1 12.5 5 26.7
2011-01-31 08:09:49 51°28.799 2°53.743 10.9 12.5 6 26.6
2011-01-31 08:09:54 51°28.816 2°53.746 10.6 12.4 6 26.8
2011-01-31 08:09:59 51°28.833 2°53.749 10.8 12.4 6 27
2011-01-31 08:10:04 51°28.85 2°53.752 11 12.5 6 27.3
2011-01-31 08:10:09 51°28.867 2°53.755 11.1 12.5 6 27.2
2011-01-31 08:10:14 51°28.884 2°53.758 11.2 12.4 6 27.3
2011-01-31 08:10:19 51°28.902 2°53.762 11.4 12.4 7 27.1
2011-01-31 08:10:24 51°28.919 2°53.765 11.7 12.5 7 27.3
2011-01-31 08:10:29 51°28.936 2°53.768 11.8 12.4 7 27.7
2011-01-31 08:10:34 51°28.953 2°53.771 11.6 12.4 6 27.8
2011-01-31 08:10:39 51°28.97 2°53.774 11.5 12.5 6 28.1
2011-01-31 08:10:44 51°28.988 2°53.777 11.4 12.5 6 28.1
2011-01-31 08:10:49 51°29.005 2°53.781 11.1 12.4 7 28.2
2011-01-31 08:10:54 51°29.023 2°53.783 11.2 12.5 6 28.2
2011-01-31 08:10:59 51°29.039 2°53.787 12.8 12.2 11 28.4
2011-01-31 08:11:04 51°29.055 2°53.793 14.9 12.3 11 28.5
2011-01-31 08:11:09 51°29.072 2°53.8 17 12.3 14 28.4
2011-01-31 08:11:14 51°29.088 2°53.808 19 12.3 16 28.4
2011-01-31 08:11:19 51°29.105 2°53.815 19.8 12.2 16 28.3
2011-01-31 08:11:24 51°29.121 2°53.823 20.6 12.2 17 28.5
2011-01-31 08:11:29 51°29.137 2°53.832 21.3 12.3 18 28.8
2011-01-31 08:11:34 51°29.153 2°53.84 22.3 12.2 18 28.7